Time;durP1;ratioP1;P1;durP2;ratioP2;P2;SDS_P1;SDS_P2;PMS_P1;PMS_P2;Temp;Humidity;BMP_temperature;BMP_pressure;BME280_temperature;BME280_humidity;BME280_pressure;Samples;Min_cycle;Max_cycle;Signal;HPM_P1;HPM_P2
2022/04/04 00:00:13;;;;;;;6.30;3.00;;;3.70;99.90;;;;;;5094722;28;20043;-61
2022/04/04 00:02:39;;;;;;;6.85;2.97;;;3.70;99.90;;;;;;5094727;28;20086;-61
2022/04/04 00:05:05;;;;;;;4.90;2.90;;;3.70;99.90;;;;;;5093354;28;20097;-61
2022/04/04 00:07:31;;;;;;;5.68;3.15;;;3.70;99.90;;;;;;5094508;28;20032;-61
2022/04/04 00:09:56;;;;;;;4.80;3.00;;;3.70;99.90;;;;;;5094405;28;20047;-61
2022/04/04 00:12:23;;;;;;;6.38;2.83;;;3.70;99.90;;;;;;5093099;28;20044;-61
2022/04/04 00:14:49;;;;;;;4.80;2.85;;;3.70;99.90;;;;;;5094098;28;20048;-60
2022/04/04 00:17:14;;;;;;;5.00;2.70;;;3.80;99.90;;;;;;5094268;28;20052;-61
2022/04/04 00:19:40;;;;;;;5.68;3.08;;;3.80;99.90;;;;;;5094345;28;20039;-61
2022/04/04 00:22:07;;;;;;;8.45;2.90;;;3.80;99.90;;;;;;5094239;28;20139;-60
2022/04/04 00:24:32;;;;;;;5.50;2.63;;;3.80;99.90;;;;;;5092927;28;20040;-61
2022/04/04 00:26:58;;;;;;;5.53;3.40;;;3.80;99.90;;;;;;5093731;28;20040;-61
2022/04/04 00:29:24;;;;;;;7.57;3.00;;;3.80;99.90;;;;;;5093939;28;20032;-61
2022/04/04 00:31:51;;;;;;;6.00;3.03;;;3.80;99.90;;;;;;5093722;28;20036;-61
2022/04/04 00:34:17;;;;;;;5.25;3.13;;;3.80;99.90;;;;;;5093936;28;20043;-61
2022/04/04 00:36:43;;;;;;;6.57;2.67;;;3.80;99.90;;;;;;5094172;28;20044;-61
2022/04/04 00:39:16;;;;;;;8.50;3.28;;;3.80;99.90;;;;;;5093914;28;20486;-61
2022/04/04 00:41:44;;;;;;;6.75;3.17;;;3.80;99.90;;;;;;5094164;28;20047;-61
2022/04/04 00:44:10;;;;;;;3.95;3.30;;;3.80;99.90;;;;;;5093590;28;20093;-61
2022/04/04 00:46:40;;;;;;;5.32;3.33;;;3.80;99.90;;;;;;5093746;28;20032;-61
2022/04/04 00:49:06;;;;;;;8.27;3.17;;;3.80;99.90;;;;;;5093853;28;20042;-61
2022/04/04 00:51:32;;;;;;;5.97;3.00;;;3.80;99.90;;;;;;5093689;28;20032;-60
2022/04/04 00:53:57;;;;;;;7.45;2.80;;;3.80;99.90;;;;;;5092350;28;20120;-61
2022/04/04 00:56:27;;;;;;;5.70;3.33;;;3.90;99.90;;;;;;5093761;28;20036;-61
2022/04/04 00:58:52;;;;;;;;;;;3.90;99.90;;;;;;5094014;28;20040;-61
2022/04/04 01:01:18;;;;;;;5.57;3.75;;;3.90;99.90;;;;;;5093062;28;20055;-61
2022/04/04 01:03:44;;;;;;;7.50;3.47;;;3.90;99.90;;;;;;5092266;28;20114;-61
2022/04/04 01:06:09;;;;;;;5.28;3.92;;;3.90;99.90;;;;;;5093444;28;20047;-61
2022/04/04 01:08:36;;;;;;;9.90;3.50;;;3.90;99.90;;;;;;5092802;28;20043;-61
2022/04/04 01:11:02;;;;;;;10.40;4.20;;;3.90;99.90;;;;;;5093385;28;20040;-61
2022/04/04 01:13:28;;;;;;;7.63;4.18;;;3.90;99.90;;;;;;5093436;28;20050;-61
2022/04/04 01:15:53;;;;;;;9.30;4.93;;;4.00;99.90;;;;;;5093102;28;20402;-62
2022/04/04 01:18:20;;;;;;;10.63;4.85;;;4.00;99.90;;;;;;5093637;28;20063;-61
2022/04/04 01:20:45;;;;;;;6.30;4.57;;;4.10;99.90;;;;;;5093290;28;20478;-61
2022/04/04 01:23:24;;;;;;;11.05;5.45;;;4.10;99.90;;;;;;5093278;28;20089;-61
2022/04/04 01:25:50;;;;;;;8.02;4.82;;;4.10;99.90;;;;;;5092642;28;20056;-61
2022/04/04 01:28:15;;;;;;;7.03;5.03;;;4.10;99.90;;;;;;5093097;28;20051;-60
2022/04/04 01:30:41;;;;;;;8.13;6.05;;;4.10;99.90;;;;;;5093060;28;20395;-61
2022/04/04 01:33:07;;;;;;;12.07;6.18;;;4.20;99.90;;;;;;5091829;28;20039;-61
2022/04/04 01:35:33;;;;;;;7.88;5.85;;;4.20;99.90;;;;;;5092947;28;20432;-61
2022/04/04 01:37:59;;;;;;;10.60;6.93;;;4.20;99.90;;;;;;5092969;28;20055;-60
2022/04/04 01:40:25;;;;;;;10.43;6.63;;;4.20;99.90;;;;;;5092899;28;20039;-61
2022/04/04 01:42:53;;;;;;;10.77;7.85;;;4.20;99.90;;;;;;5092921;28;20105;-60
2022/04/04 01:46:23;;;;;;;12.45;7.78;;;4.20;99.90;;;;;;5092632;28;20077;-61
2022/04/04 01:48:05;;;;;;;10.98;8.48;;;4.30;99.90;;;;;;5092572;28;20494;-60
2022/04/04 01:50:31;;;;;;;13.07;8.43;;;4.30;99.90;;;;;;5093023;28;20047;-61
2022/04/04 01:53:25;;;;;;;13.82;8.80;;;4.30;99.90;;;;;;5092788;28;20036;-60
2022/04/04 01:55:44;;;;;;;14.50;9.48;;;4.40;99.90;;;;;;5092367;28;20040;-61
2022/04/04 01:58:10;;;;;;;14.30;9.43;;;4.40;99.90;;;;;;5092780;28;20512;-61
2022/04/04 02:00:36;;;;;;;16.02;9.57;;;4.40;99.90;;;;;;5092610;28;20040;-61
2022/04/04 02:03:02;;;;;;;14.32;10.32;;;4.40;99.90;;;;;;5092590;28;20040;-61
2022/04/04 02:05:27;;;;;;;22.98;11.00;;;4.40;99.90;;;;;;5092323;28;20180;-60
2022/04/04 02:07:53;;;;;;;14.85;11.50;;;4.50;99.90;;;;;;5092224;28;20028;-61
2022/04/04 02:10:19;;;;;;;14.73;11.02;;;4.50;99.90;;;;;;5092510;28;20039;-60
2022/04/04 02:12:44;;;;;;;19.20;10.82;;;4.50;99.90;;;;;;5092499;28;20131;-61
2022/04/04 02:15:10;;;;;;;15.18;10.82;;;4.50;99.90;;;;;;5092251;28;20089;-61
2022/04/04 02:17:35;;;;;;;21.05;12.32;;;4.50;99.90;;;;;;5092234;28;20043;-61
2022/04/04 02:20:01;;;;;;;14.07;10.02;;;4.50;99.90;;;;;;5093000;28;20043;-61
2022/04/04 02:22:27;;;;;;;14.90;10.80;;;4.50;99.90;;;;;;5096316;28;20119;-61
2022/04/04 02:24:52;;;;;;;15.98;10.77;;;4.50;99.90;;;;;;5096534;28;20358;-61
2022/04/04 02:27:18;;;;;;;14.45;9.60;;;4.50;99.90;;;;;;5096229;28;20066;-61
2022/04/04 02:29:44;;;;;;;16.02;10.38;;;4.50;99.90;;;;;;5095516;28;20101;-61
2022/04/04 02:32:09;;;;;;;15.55;10.88;;;4.40;99.90;;;;;;5096443;28;20085;-61
2022/04/04 02:34:35;;;;;;;14.88;11.48;;;4.50;99.90;;;;;;5096041;28;20040;-61
2022/04/04 02:37:00;;;;;;;16.63;11.57;;;4.50;99.90;;;;;;5095957;28;20069;-61
2022/04/04 02:39:26;;;;;;;14.02;11.95;;;4.50;99.90;;;;;;5096128;28;20044;-61
2022/04/04 02:41:52;;;;;;;15.10;11.68;;;4.50;99.90;;;;;;5096185;28;20036;-61
2022/04/04 02:44:18;;;;;;;17.20;10.90;;;4.50;99.90;;;;;;5096142;28;20047;-61
2022/04/04 02:46:43;;;;;;;14.45;11.95;;;4.50;99.90;;;;;;5096038;28;20044;-61
2022/04/04 02:49:09;;;;;;;14.50;11.38;;;4.50;99.90;;;;;;5096155;28;20466;-61
2022/04/04 02:51:34;;;;;;;17.85;11.57;;;4.60;99.90;;;;;;5096098;28;20047;-62
2022/04/04 02:54:00;;;;;;;16.17;11.88;;;4.60;99.90;;;;;;5095826;28;20428;-62
2022/04/04 02:56:29;;;;;;;20.60;13.18;;;4.60;99.90;;;;;;5095520;28;20036;-62
2022/04/04 02:58:56;;;;;;;15.13;11.77;;;4.60;99.90;;;;;;5095627;28;20032;-61
2022/04/04 03:01:22;;;;;;;21.02;11.68;;;4.60;99.90;;;;;;5096152;28;20032;-62
2022/04/04 03:03:48;;;;;;;23.35;13.40;;;4.60;99.90;;;;;;5095756;28;20040;-61
2022/04/04 03:06:15;;;;;;;17.90;12.02;;;4.60;99.90;;;;;;5095858;28;20040;-61
2022/04/04 03:08:41;;;;;;;20.38;12.52;;;4.70;99.90;;;;;;5095366;28;20474;-61
2022/04/04 03:11:07;;;;;;;16.75;12.18;;;4.70;99.90;;;;;;5095393;28;20481;-61
2022/04/04 03:13:32;;;;;;;20.88;12.13;;;4.70;99.90;;;;;;5095220;28;20036;-61
2022/04/04 03:15:58;;;;;;;16.75;11.15;;;4.70;99.90;;;;;;5095289;28;20044;-61
2022/04/04 03:18:25;;;;;;;20.30;12.27;;;4.70;99.90;;;;;;5095206;28;20043;-61
2022/04/04 03:20:52;;;;;;;16.83;12.35;;;4.70;99.90;;;;;;5095554;28;20084;-61
2022/04/04 03:23:19;;;;;;;19.00;13.27;;;4.80;99.90;;;;;;5094167;28;20047;-61
2022/04/04 03:25:45;;;;;;;18.42;12.55;;;4.80;99.90;;;;;;5095212;28;20051;-61
2022/04/04 03:28:10;;;;;;;20.52;12.52;;;4.80;99.90;;;;;;5095432;28;20615;-62
2022/04/04 03:30:36;;;;;;;17.85;12.77;;;4.90;99.90;;;;;;5095000;28;20069;-61
2022/04/04 03:33:03;;;;;;;21.38;13.48;;;4.80;99.90;;;;;;5093587;28;20036;-62
2022/04/04 03:35:31;;;;;;;18.75;12.38;;;4.90;99.90;;;;;;5094498;28;20052;-61
2022/04/04 03:38:00;;;;;;;16.23;11.90;;;4.90;99.90;;;;;;5094725;28;20036;-61
2022/04/04 03:40:26;;;;;;;18.80;11.95;;;4.90;99.90;;;;;;5094827;28;20105;-62
2022/04/04 03:42:55;;;;;;;20.80;12.77;;;5.00;99.90;;;;;;5095038;28;20381;-61
2022/04/04 03:45:22;;;;;;;25.35;13.25;;;4.90;99.90;;;;;;5095227;28;20066;-61
2022/04/04 03:47:48;;;;;;;23.75;13.13;;;5.00;99.90;;;;;;5095038;28;20032;-61
2022/04/04 03:50:16;;;;;;;27.50;14.43;;;5.00;99.90;;;;;;5094740;28;20040;-61
2022/04/04 03:52:43;;;;;;;19.58;13.43;;;5.00;99.90;;;;;;5094697;28;20583;-61
2022/04/04 03:55:11;;;;;;;20.40;13.52;;;4.90;99.90;;;;;;5094805;28;20397;-61
2022/04/04 03:57:37;;;;;;;21.40;13.47;;;5.00;99.90;;;;;;5094640;28;20036;-61
2022/04/04 04:00:05;;;;;;;22.55;14.30;;;4.90;99.90;;;;;;5094927;28;20039;-61
2022/04/04 04:02:31;;;;;;;20.10;14.18;;;4.90;99.90;;;;;;5093429;28;20043;-61
2022/04/04 04:04:57;;;;;;;27.48;14.10;;;5.00;99.90;;;;;;5094628;28;20051;-61
2022/04/04 04:07:24;;;;;;;22.83;14.50;;;5.00;99.90;;;;;;5094837;28;20477;-61
2022/04/04 04:09:52;;;;;;;21.58;14.52;;;5.00;99.90;;;;;;5094757;28;20637;-61
2022/04/04 04:12:17;;;;;;;24.00;15.25;;;4.90;99.90;;;;;;5094499;28;20040;-61
2022/04/04 04:14:43;;;;;;;23.88;15.73;;;4.90;99.90;;;;;;5094226;28;20838;-62
2022/04/04 04:17:09;;;;;;;23.92;14.80;;;4.90;99.90;;;;;;5094400;28;20054;-61
2022/04/04 04:22:21;;;;;;;20.95;16.08;;;4.90;99.90;;;;;;5094255;28;20047;-61
2022/04/04 04:24:47;;;;;;;22.70;15.18;;;5.00;99.90;;;;;;5093893;28;20055;-61
2022/04/04 04:27:13;;;;;;;24.40;16.80;;;4.90;99.90;;;;;;5094070;28;20060;-61
2022/04/04 04:29:39;;;;;;;28.05;16.85;;;5.00;99.90;;;;;;5093987;28;20048;-61
2022/04/04 04:32:07;;;;;;;28.00;16.77;;;4.90;99.90;;;;;;5093957;28;20035;-61
2022/04/04 04:34:34;;;;;;;26.30;16.40;;;4.90;99.90;;;;;;5093910;28;20071;-61
2022/04/04 04:37:01;;;;;;;25.42;16.63;;;5.00;99.90;;;;;;5093957;28;20043;-61
2022/04/04 04:39:26;;;;;;;25.83;15.80;;;5.00;99.90;;;;;;5094162;28;20097;-61
2022/04/04 04:41:53;;;;;;;22.75;16.95;;;5.00;99.90;;;;;;5093530;28;20040;-62
2022/04/04 04:44:19;;;;;;;25.55;16.02;;;5.00;99.90;;;;;;5092903;28;20486;-61
2022/04/04 04:46:44;;;;;;;30.42;16.73;;;5.00;99.90;;;;;;5093370;28;20057;-61
2022/04/04 04:49:10;;;;;;;21.33;15.57;;;5.00;99.90;;;;;;5093770;28;20039;-61
2022/04/04 04:51:36;;;;;;;22.85;16.08;;;5.00;99.90;;;;;;5093765;28;20036;-62
2022/04/04 04:54:03;;;;;;;22.23;15.45;;;5.00;99.90;;;;;;5093788;28;20051;-61
2022/04/04 04:56:30;;;;;;;19.15;13.93;;;5.00;99.90;;;;;;5094015;28;20379;-61
2022/04/04 04:58:56;;;;;;;27.25;14.75;;;5.10;99.90;;;;;;5093355;28;20036;-61
2022/04/04 05:01:21;;;;;;;25.30;15.43;;;5.10;99.90;;;;;;5093534;28;20047;-62
2022/04/04 05:03:49;;;;;;;28.55;15.48;;;5.10;99.90;;;;;;5093345;28;20032;-61
2022/04/04 05:06:15;;;;;;;23.42;16.45;;;5.10;99.90;;;;;;5093178;28;20375;-61
2022/04/04 05:08:40;;;;;;;29.15;16.05;;;5.00;99.90;;;;;;5093285;28;20047;-61
2022/04/04 05:11:06;;;;;;;27.52;15.68;;;5.10;99.90;;;;;;5093422;28;20028;-62
2022/04/04 05:13:32;;;;;;;23.77;15.18;;;5.00;99.90;;;;;;5093592;28;20596;-61
2022/04/04 05:15:58;;;;;;;25.20;16.73;;;5.00;99.90;;;;;;5093442;28;20046;-61
2022/04/04 05:18:25;;;;;;;24.85;14.35;;;5.00;99.90;;;;;;5093592;28;20379;-61
2022/04/04 05:20:50;;;;;;;23.52;14.00;;;5.00;99.90;;;;;;5093097;28;20047;-61
2022/04/04 05:23:16;;;;;;;22.08;13.52;;;5.00;99.90;;;;;;5092897;28;20036;-61
2022/04/04 05:25:42;;;;;;;22.17;12.98;;;5.10;99.90;;;;;;5092809;28;20429;-62
2022/04/04 05:28:08;;;;;;;18.90;11.90;;;5.10;99.90;;;;;;5093218;28;20040;-61
2022/04/04 05:30:34;;;;;;;20.15;10.05;;;5.10;99.90;;;;;;5093047;28;20043;-61
2022/04/04 05:33:01;;;;;;;17.38;10.02;;;5.20;99.90;;;;;;5092960;28;20048;-61
2022/04/04 05:35:27;;;;;;;16.20;9.85;;;5.20;99.90;;;;;;5093055;28;20040;-61
2022/04/04 05:37:54;;;;;;;17.88;9.82;;;5.20;99.90;;;;;;5092589;28;20039;-61
2022/04/04 05:40:21;;;;;;;20.40;10.60;;;5.20;99.90;;;;;;5092787;28;20058;-61
2022/04/04 05:42:46;;;;;;;15.85;9.63;;;5.20;99.90;;;;;;5093086;28;20039;-61
2022/04/04 05:45:12;;;;;;;18.77;9.77;;;5.20;99.90;;;;;;5091808;28;20047;-61
2022/04/04 05:47:38;;;;;;;18.02;9.27;;;5.20;99.90;;;;;;5093063;28;20028;-60
2022/04/04 05:50:05;;;;;;;17.77;10.07;;;5.10;99.90;;;;;;5091784;28;20398;-61
2022/04/04 05:52:30;;;;;;;18.55;10.13;;;5.10;99.90;;;;;;5092487;28;20036;-60
2022/04/04 05:55:01;;;;;;;23.38;9.95;;;5.10;99.90;;;;;;5091946;28;20040;-61
2022/04/04 05:57:29;;;;;;;15.27;8.63;;;5.20;99.90;;;;;;5092929;28;20051;-61
2022/04/04 05:59:55;;;;;;;17.33;9.73;;;5.10;99.90;;;;;;5093043;28;20093;-60
2022/04/04 06:02:26;;;;;;;12.50;6.88;;;5.10;99.90;;;;;;5092582;28;20040;-60
2022/04/04 06:04:52;;;;;;;8.27;5.53;;;5.20;99.90;;;;;;5092564;28;20079;-61
2022/04/04 06:07:18;;;;;;;12.95;6.43;;;5.10;99.90;;;;;;5092461;28;20036;-61
2022/04/04 06:09:44;;;;;;;11.75;4.75;;;5.00;99.90;;;;;;5092797;28;20040;-61
2022/04/04 06:12:10;;;;;;;8.05;4.80;;;5.10;99.90;;;;;;5092599;28;20078;-61
2022/04/04 06:14:36;;;;;;;10.20;4.50;;;5.00;99.90;;;;;;5092834;28;20047;-60
2022/04/04 06:17:06;;;;;;;13.25;4.50;;;4.90;99.90;;;;;;5092823;28;20047;-60
2022/04/04 06:19:34;;;;;;;8.13;4.03;;;4.80;99.90;;;;;;5092480;28;20081;-59
2022/04/04 06:22:00;;;;;;;9.48;3.88;;;4.90;99.90;;;;;;5092924;28;20046;-58
2022/04/04 06:24:26;;;;;;;7.88;4.18;;;4.80;99.90;;;;;;5092694;28;20044;-59
2022/04/04 06:26:51;;;;;;;10.80;4.60;;;4.70;99.90;;;;;;5092028;28;20123;-59
2022/04/04 06:29:17;;;;;;;10.77;4.30;;;4.70;99.90;;;;;;5092212;28;20039;-60
2022/04/04 06:31:44;;;;;;;9.52;3.50;;;4.70;99.90;;;;;;5092331;28;20033;-59
2022/04/04 06:34:10;;;;;;;5.85;3.67;;;4.70;99.90;;;;;;5092388;28;20111;-59
2022/04/04 06:36:38;;;;;;;6.32;4.13;;;4.70;99.90;;;;;;5092276;28;20516;-60
2022/04/04 06:39:05;;;;;;;8.05;3.63;;;4.70;99.90;;;;;;5090716;28;20054;-60
2022/04/04 06:41:31;;;;;;;8.50;4.85;;;4.70;99.90;;;;;;5091579;28;20039;-60
2022/04/04 06:43:58;;;;;;;8.18;3.38;;;4.70;99.90;;;;;;5091541;28;20370;-60
2022/04/04 06:46:24;;;;;;;8.13;3.42;;;4.70;99.90;;;;;;5091403;28;20094;-59
2022/04/04 06:48:51;;;;;;;6.30;3.55;;;4.80;99.90;;;;;;5091945;28;20036;-60
2022/04/04 06:51:17;;;;;;;8.40;4.10;;;4.70;99.90;;;;;;5091584;28;20115;-59
2022/04/04 06:53:44;;;;;;;7.15;3.92;;;4.70;99.90;;;;;;5091577;28;20039;-59
2022/04/04 06:56:10;;;;;;;8.25;4.57;;;4.70;99.90;;;;;;5091600;28;20040;-60
2022/04/04 06:58:35;;;;;;;6.57;4.05;;;4.70;99.90;;;;;;5091660;28;20525;-60
2022/04/04 07:01:02;;;;;;;10.18;4.10;;;4.80;99.90;;;;;;5091846;28;20453;-59
2022/04/04 07:03:27;;;;;;;12.30;4.20;;;4.70;99.90;;;;;;5091367;28;20371;-59
2022/04/04 07:05:53;;;;;;;11.75;4.90;;;4.70;99.90;;;;;;5091870;28;20124;-60
2022/04/04 07:08:19;;;;;;;8.98;5.00;;;4.80;99.90;;;;;;5095467;28;20036;-60
2022/04/04 07:10:45;;;;;;;8.52;5.50;;;4.80;99.90;;;;;;5095199;28;20044;-59
2022/04/04 07:13:10;;;;;;;12.27;5.68;;;4.90;99.90;;;;;;5093829;28;20063;-60
2022/04/04 07:15:36;;;;;;;12.77;5.82;;;4.90;99.90;;;;;;5094963;28;20036;-60
2022/04/04 07:18:03;;;;;;;11.57;6.35;;;5.00;99.90;;;;;;5095003;28;20028;-60
2022/04/04 07:20:29;;;;;;;12.25;6.65;;;4.90;99.90;;;;;;5095044;28;20052;-59
2022/04/04 07:22:55;;;;;;;12.32;7.05;;;5.10;99.90;;;;;;5094828;28;20059;-60
2022/04/04 07:25:22;;;;;;;15.00;6.60;;;5.00;99.90;;;;;;5093357;28;20040;-60
2022/04/04 07:27:48;;;;;;;14.48;7.00;;;5.10;99.90;;;;;;5094860;28;20048;-60
2022/04/04 07:30:18;;;;;;;11.05;7.57;;;5.20;99.90;;;;;;5095135;28;20075;-60
2022/04/04 07:32:45;;;;;;;10.65;7.70;;;5.20;99.90;;;;;;5094776;28;20493;-60
2022/04/04 07:35:12;;;;;;;13.93;9.18;;;5.20;99.90;;;;;;5094918;28;20036;-60
2022/04/04 07:37:39;;;;;;;11.77;8.30;;;5.20;99.90;;;;;;5094583;28;20064;-60
2022/04/04 07:40:06;;;;;;;13.25;8.68;;;5.30;99.90;;;;;;5094569;28;20047;-60
2022/04/04 07:42:31;;;;;;;15.82;8.75;;;5.30;99.90;;;;;;5093430;28;20056;-60
2022/04/04 07:44:57;;;;;;;13.55;8.68;;;5.30;99.90;;;;;;5094302;28;20032;-59
2022/04/04 07:47:23;;;;;;;12.95;9.07;;;5.30;99.90;;;;;;5094290;28;20044;-59
2022/04/04 07:49:49;;;;;;;16.88;8.80;;;5.40;99.90;;;;;;5094459;28;20065;-60
2022/04/04 07:52:15;;;;;;;13.05;8.35;;;5.30;99.90;;;;;;5094307;28;20111;-59
2022/04/04 07:54:41;;;;;;;13.27;7.90;;;5.40;99.90;;;;;;5094568;28;20051;-60
2022/04/04 07:57:06;;;;;;;13.05;7.75;;;5.40;99.90;;;;;;5094191;28;20219;-60
2022/04/04 07:59:32;;;;;;;11.32;8.27;;;5.50;99.90;;;;;;5094145;28;20043;-60
2022/04/04 08:01:58;;;;;;;14.75;8.13;;;5.50;99.90;;;;;;5094142;28;20039;-60
2022/04/04 08:04:23;;;;;;;13.52;7.57;;;5.60;99.90;;;;;;5094220;28;20039;-59
2022/04/04 08:06:50;;;;;;;13.20;8.55;;;5.60;99.90;;;;;;5094326;28;20040;-60
2022/04/04 08:09:16;;;;;;;13.88;7.15;;;5.60;99.90;;;;;;5094259;28;20032;-59
2022/04/04 08:11:41;;;;;;;12.27;7.75;;;5.60;99.90;;;;;;5094551;28;20523;-60
2022/04/04 08:14:08;;;;;;;12.68;7.80;;;5.70;99.90;;;;;;5094025;28;20032;-60
2022/04/04 08:16:36;;;;;;;14.95;7.35;;;5.70;99.90;;;;;;5092787;28;20097;-59
2022/04/04 08:19:02;;;;;;;13.05;7.57;;;5.70;99.90;;;;;;5093311;28;20079;-60
2022/04/04 08:21:29;;;;;;;11.88;6.22;;;5.70;99.90;;;;;;5092629;28;20518;-60
2022/04/04 08:23:55;;;;;;;12.63;6.47;;;5.80;99.90;;;;;;5093768;28;20119;-61
2022/04/04 08:26:21;;;;;;;9.07;5.70;;;5.80;99.90;;;;;;5093368;28;20136;-60
2022/04/04 08:28:47;;;;;;;9.10;5.50;;;5.80;99.90;;;;;;5093616;28;20094;-60
2022/04/04 08:31:12;;;;;;;8.90;5.60;;;5.80;99.90;;;;;;5093490;28;20031;-60
2022/04/04 08:33:38;;;;;;;9.43;6.53;;;5.80;99.90;;;;;;5093789;28;20039;-60
2022/04/04 08:36:07;;;;;;;8.73;5.38;;;5.80;99.90;;;;;;5093503;28;20444;-60
2022/04/04 08:38:35;;;;;;;7.47;4.80;;;5.90;99.90;;;;;;5093456;28;20115;-60
2022/04/04 08:41:05;;;;;;;8.32;5.53;;;6.00;99.90;;;;;;5093306;28;20270;-61
2022/04/04 08:43:36;;;;;;;7.55;4.32;;;5.90;99.90;;;;;;5092091;28;20050;-61
2022/04/04 08:46:03;;;;;;;4.53;3.83;;;6.00;99.90;;;;;;5093037;28;20113;-60
2022/04/04 08:48:32;;;;;;;7.30;4.55;;;6.00;99.90;;;;;;5074774;28;20086;-61
2022/04/04 08:50:58;;;;;;;6.82;3.75;;;6.10;99.90;;;;;;5102935;28;20023;-60
2022/04/04 08:53:24;;;;;;;5.43;4.10;;;6.00;99.90;;;;;;5113394;28;20548;-60
2022/04/04 08:55:50;;;;;;;6.28;3.60;;;6.10;99.90;;;;;;5113460;28;20537;-60
2022/04/04 08:58:16;;;;;;;5.22;4.10;;;6.10;99.90;;;;;;5113617;28;20141;-60
2022/04/04 09:00:42;;;;;;;8.00;3.85;;;6.10;99.90;;;;;;5113615;27;20118;-61
2022/04/04 09:03:09;;;;;;;6.47;4.53;;;6.10;99.90;;;;;;5113555;28;20348;-60
2022/04/04 09:05:49;;;;;;;6.35;4.30;;;6.10;99.90;;;;;;5113606;28;20047;-60
2022/04/04 09:08:15;;;;;;;5.45;3.75;;;6.10;99.90;;;;;;5113274;28;20397;-61
2022/04/04 09:10:43;;;;;;;8.65;3.58;;;6.20;99.90;;;;;;5113083;28;20176;-60
2022/04/04 09:13:17;;;;;;;4.97;3.05;;;6.10;99.90;;;;;;5113144;28;20036;-61
2022/04/04 09:16:03;;;;;;;6.10;3.30;;;6.20;99.90;;;;;;5112023;28;20040;-60
2022/04/04 09:18:40;;;;;;;6.15;3.13;;;6.20;99.90;;;;;;5113118;28;20122;-59
2022/04/04 09:21:12;;;;;;;6.88;3.15;;;6.20;99.90;;;;;;5113322;28;20054;-60
2022/04/04 09:23:46;;;;;;;4.35;3.35;;;6.30;99.90;;;;;;5113120;28;20416;-60
2022/04/04 09:26:38;;;;;;;7.72;3.10;;;6.20;99.90;;;;;;5112767;28;20047;-59
2022/04/04 09:29:07;;;;;;;4.35;2.90;;;6.30;99.90;;;;;;5052971;28;20483;-60
2022/04/04 09:31:34;;;;;;;4.07;2.92;;;6.30;99.90;;;;;;5070070;28;20132;-60
2022/04/04 09:34:02;;;;;;;8.38;2.72;;;6.30;99.90;;;;;;5069991;28;20079;-60
2022/04/04 09:36:28;;;;;;;5.78;3.05;;;6.40;99.90;;;;;;5070001;28;20040;-59
2022/04/04 09:38:59;;;;;;;5.57;3.15;;;6.30;99.90;;;;;;5069803;28;20075;-60
2022/04/04 09:41:25;;;;;;;7.78;3.10;;;6.30;99.90;;;;;;5069655;28;20044;-60
2022/04/04 09:43:56;;;;;;;6.20;3.15;;;6.30;99.90;;;;;;5069604;28;20482;-60
2022/04/04 09:46:22;;;;;;;8.40;2.65;;;6.40;99.90;;;;;;5069656;28;20571;-60
2022/04/04 09:49:20;;;;;;;5.40;2.70;;;6.40;99.90;;;;;;5069686;28;20040;-61
2022/04/04 09:51:48;;;;;;;6.93;3.20;;;6.40;99.90;;;;;;5070185;28;20543;-61
2022/04/04 09:54:19;;;;;;;5.45;2.47;;;6.50;99.90;;;;;;5069917;28;20424;-60
2022/04/04 09:56:46;;;;;;;5.50;2.75;;;6.50;99.90;;;;;;5069486;28;20068;-59
2022/04/04 09:59:15;;;;;;;8.82;3.05;;;6.50;99.90;;;;;;5069607;28;20106;-59
2022/04/04 10:01:42;;;;;;;4.27;2.67;;;6.50;99.90;;;;;;5069715;28;20398;-60
2022/04/04 10:04:09;;;;;;;5.53;2.85;;;6.60;99.90;;;;;;5069616;28;20124;-59
2022/04/04 10:06:35;;;;;;;7.75;3.65;;;6.50;99.90;;;;;;5101020;28;20044;-59
2022/04/04 10:09:02;;;;;;;6.82;3.17;;;6.50;99.90;;;;;;5112019;28;20040;-58
2022/04/04 10:11:30;;;;;;;4.40;2.65;;;6.60;99.90;;;;;;5112319;28;20063;-59
2022/04/04 10:13:57;;;;;;;4.72;2.65;;;6.50;99.90;;;;;;5112126;28;20082;-59
2022/04/04 10:16:24;;;;;;;3.63;2.58;;;6.60;99.90;;;;;;5112088;28;20031;-60
2022/04/04 10:18:54;;;;;;;6.32;2.88;;;6.70;99.90;;;;;;5110743;28;20451;-59
2022/04/04 10:21:21;;;;;;;10.93;3.35;;;6.70;99.90;;;;;;5112450;28;20040;-58
2022/04/04 10:23:53;;;;;;;6.53;2.85;;;6.60;99.90;;;;;;5112283;28;20036;-60
2022/04/04 10:26:21;;;;;;;7.78;2.65;;;6.60;99.90;;;;;;5111613;28;20048;-59
2022/04/04 10:28:48;;;;;;;7.57;2.63;;;6.70;99.90;;;;;;5112131;28;20040;-61
2022/04/04 10:31:18;;;;;;;8.05;2.55;;;6.70;99.90;;;;;;5112099;28;20079;-59
2022/04/04 10:33:46;;;;;;;7.35;2.60;;;6.70;99.90;;;;;;5111992;28;20111;-60
2022/04/04 10:36:20;;;;;;;5.85;2.97;;;6.70;99.90;;;;;;5111971;28;20031;-59
2022/04/04 10:38:47;;;;;;;5.45;2.85;;;6.80;99.90;;;;;;5112223;28;20046;-60
2022/04/04 10:41:30;;;;;;;8.13;3.08;;;6.80;99.90;;;;;;5112799;28;20489;-59
2022/04/04 10:43:57;;;;;;;7.57;3.03;;;6.80;99.90;;;;;;5116291;27;20039;-60
2022/04/04 10:46:24;;;;;;;5.03;2.20;;;6.80;99.90;;;;;;5116300;28;20078;-60
2022/04/04 10:48:58;;;;;;;3.55;2.28;;;6.90;99.90;;;;;;5116176;27;20039;-60
2022/04/04 10:51:33;;;;;;;6.68;2.70;;;6.90;99.90;;;;;;5115967;28;20084;-60
2022/04/04 10:54:05;;;;;;;3.95;1.65;;;6.90;99.90;;;;;;5116085;28;20047;-60
2022/04/04 10:56:41;;;;;;;5.18;1.90;;;6.90;99.90;;;;;;5115974;28;20046;-60
2022/04/04 10:59:16;;;;;;;3.63;1.85;;;7.00;99.90;;;;;;5115622;28;20050;-60
2022/04/04 11:01:49;;;;;;;3.70;2.13;;;7.00;99.90;;;;;;5115870;28;20070;-60
2022/04/04 11:04:24;;;;;;;4.97;2.00;;;7.00;99.90;;;;;;5115890;28;20406;-60
2022/04/04 11:09:51;;;;;;;3.42;1.50;;;7.00;99.90;;;;;;5115833;28;20470;-60
2022/04/04 11:12:18;;;;;;;4.68;1.65;;;7.10;99.90;;;;;;5115990;27;20040;-60
2022/04/04 11:14:47;;;;;;;5.13;1.45;;;7.10;99.90;;;;;;5115577;28;20830;-60
2022/04/04 11:17:17;;;;;;;8.52;1.45;;;7.10;99.90;;;;;;5115466;27;20050;-60
2022/04/04 11:19:46;;;;;;;3.80;1.85;;;7.20;99.90;;;;;;5115244;28;20138;-60
2022/04/04 11:22:17;;;;;;;1.50;0.90;;;7.20;99.90;;;;;;5115162;28;20044;-60
2022/04/04 11:24:48;;;;;;;1.90;1.20;;;7.20;99.90;;;;;;5115060;28;20466;-60
2022/04/04 11:27:13;;;;;;;2.03;1.42;;;7.30;99.90;;;;;;5115157;28;20169;-60
2022/04/04 11:29:40;;;;;;;1.90;1.10;;;7.30;99.90;;;;;;5113196;28;20130;-61
2022/04/04 11:32:08;;;;;;;2.65;0.98;;;7.30;99.90;;;;;;5114943;28;20054;-60
2022/04/04 11:34:36;;;;;;;4.33;1.20;;;7.30;99.90;;;;;;5115026;28;20496;-62
2022/04/04 11:37:04;;;;;;;2.63;0.98;;;7.40;99.90;;;;;;5115245;28;20123;-61
2022/04/04 11:39:30;;;;;;;2.60;0.95;;;7.40;99.90;;;;;;5113762;28;20044;-59
2022/04/04 11:41:56;;;;;;;2.95;1.10;;;7.40;99.90;;;;;;5113577;28;20051;-59
2022/04/04 11:44:26;;;;;;;2.42;0.85;;;7.40;99.90;;;;;;5114776;28;20401;-58
2022/04/04 11:47:05;;;;;;;2.17;0.90;;;7.40;99.90;;;;;;5114793;28;20119;-60
2022/04/04 11:49:35;;;;;;;1.52;0.80;;;7.50;99.90;;;;;;5114986;28;20494;-60
2022/04/04 11:52:04;;;;;;;1.20;0.90;;;7.50;99.90;;;;;;5114702;28;20039;-61
2022/04/04 11:54:40;;;;;;;1.40;0.82;;;7.50;99.90;;;;;;5114699;28;20046;-60
2022/04/04 11:57:07;;;;;;;1.90;1.00;;;7.60;99.90;;;;;;5114737;28;20039;-60
2022/04/04 11:59:37;;;;;;;4.60;1.10;;;7.50;99.90;;;;;;5114419;28;20031;-60
2022/04/04 12:02:08;;;;;;;2.17;0.88;;;7.50;99.90;;;;;;5113422;28;20040;-60
2022/04/04 12:04:40;;;;;;;5.15;0.80;;;7.60;99.90;;;;;;5114511;28;20028;-61
2022/04/04 12:07:08;;;;;;;0.70;0.60;;;7.50;99.90;;;;;;5114456;27;20027;-60
2022/04/04 12:09:35;;;;;;;1.73;0.70;;;7.60;99.90;;;;;;5114433;28;20036;-59
2022/04/04 12:12:09;;;;;;;2.15;0.70;;;7.60;99.90;;;;;;5114081;28;20036;-59
2022/04/04 12:14:37;;;;;;;5.45;0.77;;;7.60;99.90;;;;;;5114826;28;20039;-60
2022/04/04 12:17:11;;;;;;;4.47;1.00;;;7.60;99.90;;;;;;5114374;28;20039;-60
2022/04/04 12:19:50;;;;;;;1.48;1.02;;;7.70;99.90;;;;;;5114217;28;20078;-61
2022/04/04 12:25:01;;;;;;;2.33;0.90;;;7.80;99.90;;;;;;5114096;28;20366;-60
2022/04/04 12:27:28;;;;;;;2.35;0.93;;;7.90;99.90;;;;;;5113736;28;20119;-61
2022/04/04 12:30:03;;;;;;;0.77;0.77;;;7.90;99.90;;;;;;5114001;28;20052;-61
2022/04/04 12:32:34;;;;;;;0.80;0.80;;;8.00;99.90;;;;;;5113934;28;20048;-60
2022/04/04 12:35:07;;;;;;;2.38;0.88;;;8.00;99.90;;;;;;5113642;28;20039;-61
2022/04/04 12:37:41;;;;;;;1.08;0.90;;;8.00;99.90;;;;;;5113895;28;20051;-60
2022/04/04 12:40:14;;;;;;;2.17;1.60;;;8.10;99.90;;;;;;5113786;28;20154;-60
2022/04/04 12:42:40;;;;;;;2.58;1.10;;;8.20;99.90;;;;;;5111886;28;20539;-59
2022/04/04 12:45:06;;;;;;;2.88;1.00;;;8.10;99.90;;;;;;5113565;28;20440;-60
2022/04/04 12:47:32;;;;;;;1.42;1.02;;;8.10;99.90;;;;;;5113522;28;20355;-59
2022/04/04 12:50:14;;;;;;;3.08;1.30;;;8.20;99.90;;;;;;5113617;28;20089;-59
2022/04/04 12:53:01;;;;;;;1.85;1.25;;;8.30;99.90;;;;;;5113803;28;20054;-60
2022/04/04 12:55:27;;;;;;;2.55;1.25;;;8.30;99.90;;;;;;5112131;28;20051;-60
2022/04/04 12:57:54;;;;;;;1.45;1.20;;;8.30;99.90;;;;;;5113238;28;20051;-60
2022/04/04 13:00:28;;;;;;;1.20;1.10;;;8.30;99.90;;;;;;5113658;28;20385;-59